sensor_id;sensor_type;location;lat;lon;timestamp;pressure;altitude;pressure_sealevel;temperature;humidity
79144;BME280;68551;47.484;19.092;2023-07-08T00:02:01;100912.19;;;21.73;49.47
79144;BME280;68551;47.484;19.092;2023-07-08T00:05:08;100908.59;;;21.67;49.73
79144;BME280;68551;47.484;19.092;2023-07-08T00:08:17;100905.81;;;21.67;50.19
79144;BME280;68551;47.484;19.092;2023-07-08T00:11:20;100911.97;;;21.59;49.92
79144;BME280;68551;47.484;19.092;2023-07-08T00:14:23;100909.78;;;21.51;50.27
79144;BME280;68551;47.484;19.092;2023-07-08T00:17:32;100915.59;;;21.49;50.47
79144;BME280;68551;47.484;19.092;2023-07-08T00:20:38;100922.59;;;21.42;50.31
79144;BME280;68551;47.484;19.092;2023-07-08T00:23:47;100915.66;;;21.34;50.78
79144;BME280;68551;47.484;19.092;2023-07-08T00:26:50;100905.72;;;21.28;51.06
79144;BME280;68551;47.484;19.092;2023-07-08T00:29:55;100909.59;;;21.32;51.25
79144;BME280;68551;47.484;19.092;2023-07-08T00:33:00;100919.84;;;21.32;51.23
79144;BME280;68551;47.484;19.092;2023-07-08T00:36:09;100908.78;;;21.27;51.22
79144;BME280;68551;47.484;19.092;2023-07-08T00:39:14;100908.75;;;21.32;50.45
79144;BME280;68551;47.484;19.092;2023-07-08T00:42:19;100905.91;;;21.52;49.80
79144;BME280;68551;47.484;19.092;2023-07-08T00:52:28;100908.72;;;21.47;52.05
79144;BME280;68551;47.484;19.092;2023-07-08T00:55:36;100900.97;;;21.39;52.26
79144;BME280;68551;47.484;19.092;2023-07-08T00:58:50;100890.97;;;21.38;52.75
79144;BME280;68551;47.484;19.092;2023-07-08T01:01:58;100907.34;;;21.34;52.86
79144;BME280;68551;47.484;19.092;2023-07-08T01:05:08;100901.28;;;21.27;53.39
79144;BME280;68551;47.484;19.092;2023-07-08T01:08:13;100901.56;;;21.26;53.20
79144;BME280;68551;47.484;19.092;2023-07-08T01:11:19;100905.44;;;21.25;52.91
79144;BME280;68551;47.484;19.092;2023-07-08T01:14:24;100907.66;;;21.17;52.84
79144;BME280;68551;47.484;19.092;2023-07-08T01:17:34;100905.19;;;21.16;52.79
79144;BME280;68551;47.484;19.092;2023-07-08T01:20:39;100894.94;;;21.11;53.09
79144;BME280;68551;47.484;19.092;2023-07-08T01:23:50;100906.00;;;21.11;53.66
79144;BME280;68551;47.484;19.092;2023-07-08T01:26:55;100907.69;;;21.12;54.15
79144;BME280;68551;47.484;19.092;2023-07-08T01:30:00;100907.72;;;21.02;54.47
79144;BME280;68551;47.484;19.092;2023-07-08T01:33:16;100903.31;;;20.91;54.86
79144;BME280;68551;47.484;19.092;2023-07-08T01:36:20;100904.41;;;20.90;55.20
79144;BME280;68551;47.484;19.092;2023-07-08T01:39:24;100906.34;;;20.84;54.65
79144;BME280;68551;47.484;19.092;2023-07-08T01:42:28;100909.41;;;20.78;54.96
79144;BME280;68551;47.484;19.092;2023-07-08T01:45:39;100900.00;;;20.69;55.19
79144;BME280;68551;47.484;19.092;2023-07-08T01:48:56;100900.00;;;20.74;54.96
79144;BME280;68551;47.484;19.092;2023-07-08T01:51:59;100906.13;;;20.61;55.43
79144;BME280;68551;47.484;19.092;2023-07-08T01:55:04;100907.47;;;20.68;54.92
79144;BME280;68551;47.484;19.092;2023-07-08T01:58:06;100902.50;;;20.55;55.02
79144;BME280;68551;47.484;19.092;2023-07-08T02:01:09;100895.59;;;20.63;54.97
79144;BME280;68551;47.484;19.092;2023-07-08T02:04:14;100897.81;;;20.61;54.72
79144;BME280;68551;47.484;19.092;2023-07-08T02:07:17;100895.59;;;20.58;54.92
79144;BME280;68551;47.484;19.092;2023-07-08T02:10:22;100890.31;;;20.51;55.68
79144;BME280;68551;47.484;19.092;2023-07-08T02:13:24;100883.97;;;20.45;55.45
79144;BME280;68551;47.484;19.092;2023-07-08T02:16:30;100881.72;;;20.32;56.12
79144;BME280;68551;47.484;19.092;2023-07-08T02:19:32;100886.19;;;20.38;56.36
79144;BME280;68551;47.484;19.092;2023-07-08T02:22:37;100895.00;;;20.35;56.85
79144;BME280;68551;47.484;19.092;2023-07-08T02:25:43;100892.78;;;20.27;57.43
79144;BME280;68551;47.484;19.092;2023-07-08T02:28:52;100895.56;;;20.27;57.88
79144;BME280;68551;47.484;19.092;2023-07-08T02:31:55;100898.88;;;20.29;57.99
79144;BME280;68551;47.484;19.092;2023-07-08T02:34:57;100896.69;;;20.21;58.67
79144;BME280;68551;47.484;19.092;2023-07-08T02:37:59;100890.00;;;20.12;58.92
79144;BME280;68551;47.484;19.092;2023-07-08T02:41:07;100890.03;;;20.17;58.70
79144;BME280;68551;47.484;19.092;2023-07-08T02:44:12;100902.75;;;20.18;58.75
79144;BME280;68551;47.484;19.092;2023-07-08T02:47:15;100893.84;;;19.96;59.84
79144;BME280;68551;47.484;19.092;2023-07-08T02:50:17;100902.69;;;19.88;60.55
79144;BME280;68551;47.484;19.092;2023-07-08T02:53:24;100903.53;;;19.88;60.35
79144;BME280;68551;47.484;19.092;2023-07-08T02:56:26;100903.53;;;19.98;60.00
79144;BME280;68551;47.484;19.092;2023-07-08T02:59:29;100899.91;;;19.82;60.13
79144;BME280;68551;47.484;19.092;2023-07-08T03:02:36;100908.22;;;19.77;59.97
79144;BME280;68551;47.484;19.092;2023-07-08T03:05:39;100902.13;;;19.80;59.78
79144;BME280;68551;47.484;19.092;2023-07-08T03:08:42;100905.97;;;19.79;59.48
79144;BME280;68551;47.484;19.092;2023-07-08T03:11:47;100911.78;;;19.73;59.88
79144;BME280;68551;47.484;19.092;2023-07-08T03:14:52;100918.69;;;19.70;60.37
79144;BME280;68551;47.484;19.092;2023-07-08T03:17:57;100909.81;;;19.58;60.26
79144;BME280;68551;47.484;19.092;2023-07-08T03:21:02;100914.22;;;19.59;60.86
79144;BME280;68551;47.484;19.092;2023-07-08T03:24:07;100917.53;;;19.56;60.07
79144;BME280;68551;47.484;19.092;2023-07-08T03:27:09;100923.34;;;19.55;59.27
79144;BME280;68551;47.484;19.092;2023-07-08T03:30:18;100928.88;;;19.60;59.20
79144;BME280;68551;47.484;19.092;2023-07-08T03:33:22;100924.72;;;19.57;58.71
79144;BME280;68551;47.484;19.092;2023-07-08T03:36:26;100928.59;;;19.56;58.96
79144;BME280;68551;47.484;19.092;2023-07-08T03:39:28;100930.84;;;19.64;58.58
79144;BME280;68551;47.484;19.092;2023-07-08T03:42:35;100929.13;;;19.53;58.69
79144;BME280;68551;47.484;19.092;2023-07-08T03:45:37;100919.09;;;19.42;59.40
79144;BME280;68551;47.484;19.092;2023-07-08T03:48:50;100935.72;;;19.47;59.61
79144;BME280;68551;47.484;19.092;2023-07-08T03:51:53;100938.47;;;19.47;59.70
79144;BME280;68551;47.484;19.092;2023-07-08T03:54:56;100930.72;;;19.44;59.18
79144;BME280;68551;47.484;19.092;2023-07-08T03:58:03;100932.09;;;19.41;59.19
79144;BME280;68551;47.484;19.092;2023-07-08T04:01:16;100941.75;;;19.34;59.84
79144;BME280;68551;47.484;19.092;2023-07-08T04:04:19;100930.47;;;19.45;59.37
79144;BME280;68551;47.484;19.092;2023-07-08T04:07:22;100932.88;;;19.32;60.01
79144;BME280;68551;47.484;19.092;2023-07-08T04:10:25;100940.06;;;19.33;60.28
79144;BME280;68551;47.484;19.092;2023-07-08T04:13:28;100935.16;;;19.45;59.40
79144;BME280;68551;47.484;19.092;2023-07-08T04:19:52;100930.28;;;19.67;57.97
79144;BME280;68551;47.484;19.092;2023-07-08T04:22:58;100946.09;;;19.82;57.13
79144;BME280;68551;47.484;19.092;2023-07-08T04:26:02;100944.22;;;19.93;57.37
79144;BME280;68551;47.484;19.092;2023-07-08T04:29:21;100937.03;;;19.92;57.37
79144;BME280;68551;47.484;19.092;2023-07-08T04:32:25;100924.25;;;19.80;57.22
79144;BME280;68551;47.484;19.092;2023-07-08T04:35:30;100935.94;;;20.03;57.43
79144;BME280;68551;47.484;19.092;2023-07-08T04:38:35;100932.63;;;20.16;56.77
79144;BME280;68551;47.484;19.092;2023-07-08T04:41:40;100936.56;;;20.40;55.71
79144;BME280;68551;47.484;19.092;2023-07-08T04:44:51;100947.06;;;20.64;55.28
79144;BME280;68551;47.484;19.092;2023-07-08T04:47:55;100939.88;;;20.58;55.43
79144;BME280;68551;47.484;19.092;2023-07-08T04:51:00;100942.38;;;20.74;55.12
79144;BME280;68551;47.484;19.092;2023-07-08T04:54:06;100955.38;;;20.94;54.28
79144;BME280;68551;47.484;19.092;2023-07-08T04:57:11;100948.72;;;20.80;53.24
79144;BME280;68551;47.484;19.092;2023-07-08T05:00:22;100950.38;;;21.01;53.11
79144;BME280;68551;47.484;19.092;2023-07-08T05:03:26;100959.22;;;21.23;52.70
79144;BME280;68551;47.484;19.092;2023-07-08T05:06:34;100955.00;;;21.46;52.58
79144;BME280;68551;47.484;19.092;2023-07-08T05:09:36;100954.03;;;21.81;51.29
79144;BME280;68551;47.484;19.092;2023-07-08T05:12:42;100952.22;;;22.11;50.05
79144;BME280;68551;47.484;19.092;2023-07-08T05:15:48;100959.66;;;22.20;50.10
79144;BME280;68551;47.484;19.092;2023-07-08T05:18:53;100948.31;;;22.17;49.56
79144;BME280;68551;47.484;19.092;2023-07-08T05:21:57;100953.63;;;22.47;48.92
79144;BME280;68551;47.484;19.092;2023-07-08T05:25:03;100965.66;;;22.72;47.91
79144;BME280;68551;47.484;19.092;2023-07-08T05:28:08;100962.69;;;22.97;47.33
79144;BME280;68551;47.484;19.092;2023-07-08T05:31:14;100963.50;;;23.26;46.98
79144;BME280;68551;47.484;19.092;2023-07-08T05:34:16;100966.44;;;23.35;46.10
79144;BME280;68551;47.484;19.092;2023-07-08T05:37:19;100971.44;;;23.62;45.53
79144;BME280;68551;47.484;19.092;2023-07-08T05:40:25;100965.78;;;23.91;45.50
79144;BME280;68551;47.484;19.092;2023-07-08T05:43:28;100978.16;;;24.22;44.30
79144;BME280;68551;47.484;19.092;2023-07-08T05:46:30;100970.41;;;24.19;43.54
79144;BME280;68551;47.484;19.092;2023-07-08T05:49:33;100971.78;;;24.41;44.50
79144;BME280;68551;47.484;19.092;2023-07-08T05:52:35;100970.97;;;24.72;43.92
79144;BME280;68551;47.484;19.092;2023-07-08T05:55:39;100982.34;;;24.95;42.74
79144;BME280;68551;47.484;19.092;2023-07-08T05:58:44;100981.13;;;24.50;43.63
79144;BME280;68551;47.484;19.092;2023-07-08T06:01:47;100982.72;;;24.37;44.04
79144;BME280;68551;47.484;19.092;2023-07-08T06:04:49;100956.09;;;24.07;44.18
79144;BME280;68551;47.484;19.092;2023-07-08T06:07:52;100984.59;;;24.23;44.54
79144;BME280;68551;47.484;19.092;2023-07-08T06:10:57;100989.94;;;24.38;43.38
79144;BME280;68551;47.484;19.092;2023-07-08T06:14:04;100984.66;;;24.55;43.56
79144;BME280;68551;47.484;19.092;2023-07-08T06:17:09;100979.63;;;24.38;43.70
79144;BME280;68551;47.484;19.092;2023-07-08T06:20:15;100984.38;;;24.70;43.00
79144;BME280;68551;47.484;19.092;2023-07-08T06:23:17;100991.72;;;24.66;43.21
79144;BME280;68551;47.484;19.092;2023-07-08T06:26:19;100990.84;;;25.17;42.19
79144;BME280;68551;47.484;19.092;2023-07-08T06:29:23;100986.19;;;25.72;41.39
79144;BME280;68551;47.484;19.092;2023-07-08T06:32:26;100987.47;;;26.16;40.91
79144;BME280;68551;47.484;19.092;2023-07-08T06:35:29;100970.16;;;26.86;39.13
79144;BME280;68551;47.484;19.092;2023-07-08T06:38:34;100979.72;;;27.47;36.66
79144;BME280;68551;47.484;19.092;2023-07-08T06:41:39;100973.66;;;27.53;37.80
79144;BME280;68551;47.484;19.092;2023-07-08T06:44:42;100968.50;;;27.86;36.65
79144;BME280;68551;47.484;19.092;2023-07-08T06:47:57;100980.59;;;28.13;35.16
79144;BME280;68551;47.484;19.092;2023-07-08T06:51:07;100975.31;;;27.24;35.06
79144;BME280;68551;47.484;19.092;2023-07-08T06:54:12;100976.34;;;27.28;35.50
79144;BME280;68551;47.484;19.092;2023-07-08T06:57:16;100960.44;;;27.45;36.06
79144;BME280;68551;47.484;19.092;2023-07-08T07:00:19;100972.91;;;28.18;34.87
79144;BME280;68551;47.484;19.092;2023-07-08T07:03:23;100955.69;;;28.11;34.97
79144;BME280;68551;47.484;19.092;2023-07-08T07:06:28;100964.78;;;28.69;33.28
79144;BME280;68551;47.484;19.092;2023-07-08T07:09:36;100962.97;;;28.64;31.69
79144;BME280;68551;47.484;19.092;2023-07-08T07:12:41;100959.03;;;28.65;30.78
79144;BME280;68551;47.484;19.092;2023-07-08T07:15:43;100952.72;;;28.94;31.02
79144;BME280;68551;47.484;19.092;2023-07-08T07:18:46;100965.22;;;29.14;29.90
79144;BME280;68551;47.484;19.092;2023-07-08T07:21:48;100957.06;;;29.38;29.89
79144;BME280;68551;47.484;19.092;2023-07-08T07:24:53;100950.75;;;29.79;29.42
79144;BME280;68551;47.484;19.092;2023-07-08T07:27:55;100954.53;;;30.33;28.61
79144;BME280;68551;47.484;19.092;2023-07-08T07:30:59;100963.13;;;30.58;27.55
79144;BME280;68551;47.484;19.092;2023-07-08T07:34:02;100941.28;;;31.21;27.96
79144;BME280;68551;47.484;19.092;2023-07-08T07:37:05;100951.66;;;31.65;27.09
79144;BME280;68551;47.484;19.092;2023-07-08T07:40:10;100951.66;;;31.65;26.12
79144;BME280;68551;47.484;19.092;2023-07-08T07:43:15;100947.63;;;32.03;26.44
79144;BME280;68551;47.484;19.092;2023-07-08T07:46:18;100944.47;;;32.45;25.83
79144;BME280;68551;47.484;19.092;2023-07-08T07:49:20;100948.75;;;32.38;25.44
79144;BME280;68551;47.484;19.092;2023-07-08T07:52:23;100948.06;;;32.29;25.59
79144;BME280;68551;47.484;19.092;2023-07-08T07:55:26;100934.66;;;32.38;24.95
79144;BME280;68551;47.484;19.092;2023-07-08T07:58:32;100941.34;;;32.74;24.83
79144;BME280;68551;47.484;19.092;2023-07-08T08:01:34;100938.00;;;32.44;24.66
79144;BME280;68551;47.484;19.092;2023-07-08T08:04:37;100935.25;;;32.88;24.71
79144;BME280;68551;47.484;19.092;2023-07-08T08:07:43;100931.66;;;33.66;23.47
79144;BME280;68551;47.484;19.092;2023-07-08T08:10:50;100918.06;;;33.71;22.98
79144;BME280;68551;47.484;19.092;2023-07-08T08:13:53;100927.97;;;34.51;23.26
79144;BME280;68551;47.484;19.092;2023-07-08T08:16:57;100931.28;;;33.83;23.38
79144;BME280;68551;47.484;19.092;2023-07-08T08:20:03;100929.38;;;34.41;22.18
79144;BME280;68551;47.484;19.092;2023-07-08T08:23:10;100916.53;;;33.11;23.96
79144;BME280;68551;47.484;19.092;2023-07-08T08:26:13;100927.91;;;32.83;22.13
79144;BME280;68551;47.484;19.092;2023-07-08T08:29:18;100929.09;;;31.53;24.68
79144;BME280;68551;47.484;19.092;2023-07-08T08:32:25;100930.75;;;31.42;25.14
79144;BME280;68551;47.484;19.092;2023-07-08T08:35:27;100912.38;;;32.77;23.88
79144;BME280;68551;47.484;19.092;2023-07-08T08:38:29;100921.94;;;33.32;22.54
79144;BME280;68551;47.484;19.092;2023-07-08T08:41:40;100912.88;;;33.58;23.23
79144;BME280;68551;47.484;19.092;2023-07-08T08:44:44;100914.00;;;34.04;22.50
79144;BME280;68551;47.484;19.092;2023-07-08T08:47:54;100916.41;;;34.40;22.62
79144;BME280;68551;47.484;19.092;2023-07-08T08:51:05;100914.72;;;34.97;21.79
79144;BME280;68551;47.484;19.092;2023-07-08T08:54:12;100907.28;;;35.58;21.45
79144;BME280;68551;47.484;19.092;2023-07-08T08:57:28;100904.59;;;35.42;21.28
79144;BME280;68551;47.484;19.092;2023-07-08T09:04:01;100909.19;;;35.04;21.29
79144;BME280;68551;47.484;19.092;2023-07-08T09:07:12;100888.28;;;35.12;21.55
79144;BME280;68551;47.484;19.092;2023-07-08T09:10:35;100895.28;;;33.80;22.64
79144;BME280;68551;47.484;19.092;2023-07-08T09:13:47;100895.50;;;33.40;23.83
79144;BME280;68551;47.484;19.092;2023-07-08T09:20:27;100900.50;;;33.97;22.82
79144;BME280;68551;47.484;19.092;2023-07-08T09:23:32;100897.66;;;33.78;22.79
79144;BME280;68551;47.484;19.092;2023-07-08T09:26:41;100900.41;;;33.12;23.73
79144;BME280;68551;47.484;19.092;2023-07-08T09:29:48;100891.56;;;32.26;24.79
79144;BME280;68551;47.484;19.092;2023-07-08T09:32:56;100903.03;;;32.61;25.05
79144;BME280;68551;47.484;19.092;2023-07-08T09:36:01;100908.97;;;32.44;25.08
79144;BME280;68551;47.484;19.092;2023-07-08T09:39:18;100897.28;;;32.85;23.65
79144;BME280;68551;47.484;19.092;2023-07-08T09:42:28;100896.53;;;32.72;23.64
79144;BME280;68551;47.484;19.092;2023-07-08T09:45:44;100896.00;;;31.75;25.44
79144;BME280;68551;47.484;19.092;2023-07-08T09:48:50;100892.63;;;32.49;25.39
79144;BME280;68551;47.484;19.092;2023-07-08T09:51:55;100903.25;;;32.68;24.86
79144;BME280;68551;47.484;19.092;2023-07-08T09:55:00;100889.66;;;31.17;25.67
79144;BME280;68551;47.484;19.092;2023-07-08T09:58:03;100902.47;;;29.86;27.47
79144;BME280;68551;47.484;19.092;2023-07-08T10:01:18;100903.81;;;29.80;28.01
79144;BME280;68551;47.484;19.092;2023-07-08T10:04:23;100899.78;;;28.84;28.85
79144;BME280;68551;47.484;19.092;2023-07-08T10:07:29;100904.69;;;28.96;29.26
79144;BME280;68551;47.484;19.092;2023-07-08T10:10:38;100897.00;;;28.58;29.58
79144;BME280;68551;47.484;19.092;2023-07-08T10:13:44;100894.44;;;29.38;28.35
79144;BME280;68551;47.484;19.092;2023-07-08T10:16:49;100887.16;;;30.37;28.09
79144;BME280;68551;47.484;19.092;2023-07-08T10:19:52;100884.25;;;31.12;27.07
79144;BME280;68551;47.484;19.092;2023-07-08T10:23:40;100871.84;;;31.13;27.31
79144;BME280;68551;47.484;19.092;2023-07-08T10:26:40;100873.78;;;30.88;26.04
79144;BME280;68551;47.484;19.092;2023-07-08T10:33:10;100873.19;;;30.94;26.91
79144;BME280;68551;47.484;19.092;2023-07-08T10:43:58;100863.56;;;30.83;28.46
79144;BME280;68551;47.484;19.092;2023-07-08T11:07:51;100829.38;;;29.44;28.35
79144;BME280;68551;47.484;19.092;2023-07-08T11:11:06;100851.50;;;29.37;28.39
79144;BME280;68551;47.484;19.092;2023-07-08T11:14:24;100851.88;;;28.98;30.04
79144;BME280;68551;47.484;19.092;2023-07-08T11:17:58;100841.31;;;29.03;29.44
79144;BME280;68551;47.484;19.092;2023-07-08T11:21:15;100846.53;;;29.13;28.46
79144;BME280;68551;47.484;19.092;2023-07-08T11:27:38;100845.69;;;29.13;28.81
79144;BME280;68551;47.484;19.092;2023-07-08T11:30:47;100844.53;;;29.14;28.66
79144;BME280;68551;47.484;19.092;2023-07-08T11:33:52;100841.06;;;29.17;28.09
79144;BME280;68551;47.484;19.092;2023-07-08T11:36:57;100839.44;;;29.37;28.27
79144;BME280;68551;47.484;19.092;2023-07-08T11:40:27;100836.09;;;29.52;27.63
79144;BME280;68551;47.484;19.092;2023-07-08T11:43:56;100826.84;;;29.51;27.69
79144;BME280;68551;47.484;19.092;2023-07-08T11:46:59;100810.53;;;29.45;28.40
79144;BME280;68551;47.484;19.092;2023-07-08T11:50:02;100816.50;;;29.43;28.46
79144;BME280;68551;47.484;19.092;2023-07-08T11:53:10;100809.31;;;29.54;29.10
79144;BME280;68551;47.484;19.092;2023-07-08T11:59:23;100819.44;;;28.79;28.81
79144;BME280;68551;47.484;19.092;2023-07-08T12:02:30;100810.66;;;28.26;28.85
79144;BME280;68551;47.484;19.092;2023-07-08T12:05:49;100804.22;;;27.82;29.67
79144;BME280;68551;47.484;19.092;2023-07-08T12:08:55;100800.78;;;28.19;29.09
79144;BME280;68551;47.484;19.092;2023-07-08T12:12:22;100798.41;;;28.39;29.05
79144;BME280;68551;47.484;19.092;2023-07-08T12:15:27;100801.06;;;28.44;28.11
79144;BME280;68551;47.484;19.092;2023-07-08T12:18:38;100797.09;;;28.45;28.84
79144;BME280;68551;47.484;19.092;2023-07-08T12:21:41;100794.16;;;28.33;28.93
79144;BME280;68551;47.484;19.092;2023-07-08T12:24:45;100794.84;;;27.95;29.15
79144;BME280;68551;47.484;19.092;2023-07-08T12:27:50;100792.69;;;28.18;29.28
79144;BME280;68551;47.484;19.092;2023-07-08T12:30:55;100791.16;;;28.46;29.29
79144;BME280;68551;47.484;19.092;2023-07-08T12:34:04;100787.31;;;28.60;29.80
79144;BME280;68551;47.484;19.092;2023-07-08T12:37:12;100787.78;;;28.70;29.47
79144;BME280;68551;47.484;19.092;2023-07-08T12:40:17;100782.78;;;28.84;28.57
79144;BME280;68551;47.484;19.092;2023-07-08T12:43:19;100780.81;;;28.76;28.55
79144;BME280;68551;47.484;19.092;2023-07-08T12:46:22;100784.50;;;28.60;28.43
79144;BME280;68551;47.484;19.092;2023-07-08T12:49:25;100769.19;;;28.57;29.09
79144;BME280;68551;47.484;19.092;2023-07-08T12:52:29;100760.28;;;28.55;28.69
79144;BME280;68551;47.484;19.092;2023-07-08T12:55:42;100774.94;;;28.61;28.74
79144;BME280;68551;47.484;19.092;2023-07-08T12:58:52;100780.47;;;28.31;28.64
79144;BME280;68551;47.484;19.092;2023-07-08T13:01:55;100765.31;;;28.32;28.78
79144;BME280;68551;47.484;19.092;2023-07-08T13:05:00;100758.44;;;28.21;29.09
79144;BME280;68551;47.484;19.092;2023-07-08T13:08:09;100756.03;;;28.40;28.85
79144;BME280;68551;47.484;19.092;2023-07-08T13:11:19;100753.34;;;28.52;28.27
79144;BME280;68551;47.484;19.092;2023-07-08T13:14:25;100750.00;;;28.68;28.42
79144;BME280;68551;47.484;19.092;2023-07-08T13:17:30;100741.25;;;28.69;28.81
79144;BME280;68551;47.484;19.092;2023-07-08T13:20:33;100748.50;;;28.70;29.36
79144;BME280;68551;47.484;19.092;2023-07-08T13:23:36;100753.59;;;28.77;28.74
79144;BME280;68551;47.484;19.092;2023-07-08T13:26:39;100752.25;;;28.83;28.85
79144;BME280;68551;47.484;19.092;2023-07-08T13:29:42;100743.22;;;28.77;28.75
79144;BME280;68551;47.484;19.092;2023-07-08T13:32:53;100758.75;;;28.66;28.59
79144;BME280;68551;47.484;19.092;2023-07-08T13:35:57;100752.19;;;28.62;28.61
79144;BME280;68551;47.484;19.092;2023-07-08T13:39:08;100757.59;;;28.67;28.56
79144;BME280;68551;47.484;19.092;2023-07-08T13:42:11;100755.75;;;28.71;28.65
79144;BME280;68551;47.484;19.092;2023-07-08T13:45:25;100751.13;;;28.75;29.28
79144;BME280;68551;47.484;19.092;2023-07-08T13:48:40;100752.78;;;28.76;28.64
79144;BME280;68551;47.484;19.092;2023-07-08T13:51:43;100751.13;;;28.75;29.32
79144;BME280;68551;47.484;19.092;2023-07-08T13:54:51;100752.28;;;28.74;28.73
79144;BME280;68551;47.484;19.092;2023-07-08T13:58:00;100748.81;;;28.77;28.30
79144;BME280;68551;47.484;19.092;2023-07-08T14:01:08;100749.47;;;28.74;28.31
79144;BME280;68551;47.484;19.092;2023-07-08T14:04:16;100746.53;;;28.71;28.45
79144;BME280;68551;47.484;19.092;2023-07-08T14:07:25;100740.22;;;28.82;29.01
79144;BME280;68551;47.484;19.092;2023-07-08T14:10:32;100729.00;;;28.82;28.78
79144;BME280;68551;47.484;19.092;2023-07-08T14:13:37;100735.28;;;28.79;28.36
79144;BME280;68551;47.484;19.092;2023-07-08T14:16:53;100743.56;;;28.67;28.99
79144;BME280;68551;47.484;19.092;2023-07-08T14:20:04;100725.63;;;28.60;28.70
79144;BME280;68551;47.484;19.092;2023-07-08T14:23:10;100739.50;;;28.56;27.99
79144;BME280;68551;47.484;19.092;2023-07-08T14:26:15;100732.41;;;28.50;28.52
79144;BME280;68551;47.484;19.092;2023-07-08T14:29:22;100741.69;;;28.42;28.66
79144;BME280;68551;47.484;19.092;2023-07-08T14:32:26;100734.75;;;28.48;28.30
79144;BME280;68551;47.484;19.092;2023-07-08T14:35:30;100736.69;;;28.56;27.77
79144;BME280;68551;47.484;19.092;2023-07-08T14:38:32;100723.53;;;28.48;28.45
79144;BME280;68551;47.484;19.092;2023-07-08T14:41:42;100741.03;;;28.45;28.08
79144;BME280;68551;47.484;19.092;2023-07-08T14:44:49;100736.03;;;28.59;28.04
79144;BME280;68551;47.484;19.092;2023-07-08T14:47:52;100726.56;;;28.64;28.69
79144;BME280;68551;47.484;19.092;2023-07-08T14:50:57;100728.78;;;28.58;29.09
79144;BME280;68551;47.484;19.092;2023-07-08T14:54:01;100719.22;;;28.50;29.00
79144;BME280;68551;47.484;19.092;2023-07-08T14:57:04;100726.28;;;28.56;28.48
79144;BME280;68551;47.484;19.092;2023-07-08T15:00:11;100728.78;;;28.58;28.33
79144;BME280;68551;47.484;19.092;2023-07-08T15:03:17;100719.13;;;28.76;27.64
79144;BME280;68551;47.484;19.092;2023-07-08T15:06:30;100704.69;;;28.57;28.40
79144;BME280;68551;47.484;19.092;2023-07-08T15:09:35;100729.19;;;28.77;28.33
79144;BME280;68551;47.484;19.092;2023-07-08T15:12:40;100722.22;;;28.83;27.96
79144;BME280;68551;47.484;19.092;2023-07-08T15:15:47;100705.91;;;28.77;28.42
79144;BME280;68551;47.484;19.092;2023-07-08T15:18:50;100705.72;;;28.82;28.72
79144;BME280;68551;47.484;19.092;2023-07-08T15:21:52;100716.78;;;28.78;28.65
79144;BME280;68551;47.484;19.092;2023-07-08T15:24:59;100715.34;;;28.64;28.93
79144;BME280;68551;47.484;19.092;2023-07-08T15:28:02;100714.75;;;28.58;29.17
79144;BME280;68551;47.484;19.092;2023-07-08T15:31:09;100716.19;;;28.64;28.94
79144;BME280;68551;47.484;19.092;2023-07-08T15:34:18;100712.91;;;28.62;29.48
79144;BME280;68551;47.484;19.092;2023-07-08T15:37:21;100699.25;;;28.52;29.48
79144;BME280;68551;47.484;19.092;2023-07-08T15:40:24;100688.53;;;28.54;28.68
79144;BME280;68551;47.484;19.092;2023-07-08T15:43:31;100688.84;;;28.61;29.33
79144;BME280;68551;47.484;19.092;2023-07-08T15:46:36;100683.81;;;28.75;28.12
79144;BME280;68551;47.484;19.092;2023-07-08T15:49:41;100692.41;;;28.70;28.62
79144;BME280;68551;47.484;19.092;2023-07-08T15:52:50;100672.19;;;28.56;28.46
79144;BME280;68551;47.484;19.092;2023-07-08T15:55:52;100678.97;;;28.55;28.21
79144;BME280;68551;47.484;19.092;2023-07-08T15:58:57;100681.38;;;28.65;29.14
79144;BME280;68551;47.484;19.092;2023-07-08T16:02:03;100687.72;;;28.53;29.02
79144;BME280;68551;47.484;19.092;2023-07-08T16:05:09;100692.53;;;28.44;29.28
79144;BME280;68551;47.484;19.092;2023-07-08T16:08:12;100687.56;;;28.50;29.09
79144;BME280;68551;47.484;19.092;2023-07-08T16:11:20;100691.88;;;28.47;29.36
79144;BME280;68551;47.484;19.092;2023-07-08T16:14:24;100683.00;;;28.37;29.41
79144;BME280;68551;47.484;19.092;2023-07-08T16:17:33;100677.72;;;28.44;28.42
79144;BME280;68551;47.484;19.092;2023-07-08T16:20:48;100696.91;;;28.63;27.97
79144;BME280;68551;47.484;19.092;2023-07-08T16:23:50;100691.53;;;28.49;28.49
79144;BME280;68551;47.484;19.092;2023-07-08T16:26:59;100689.59;;;28.41;28.95
79144;BME280;68551;47.484;19.092;2023-07-08T16:30:02;100690.94;;;28.35;29.00
79144;BME280;68551;47.484;19.092;2023-07-08T16:33:07;100681.72;;;28.34;28.99
79144;BME280;68551;47.484;19.092;2023-07-08T16:36:18;100691.91;;;28.39;28.20
79144;BME280;68551;47.484;19.092;2023-07-08T16:39:21;100684.66;;;28.38;28.24
79144;BME280;68551;47.484;19.092;2023-07-08T16:42:28;100680.69;;;28.39;28.43
79144;BME280;68551;47.484;19.092;2023-07-08T16:45:30;100678.38;;;28.41;28.36
79144;BME280;68551;47.484;19.092;2023-07-08T16:48:32;100676.22;;;28.38;28.50
79144;BME280;68551;47.484;19.092;2023-07-08T16:51:37;100680.69;;;28.39;28.09
79144;BME280;68551;47.484;19.092;2023-07-08T16:54:43;100677.75;;;28.35;28.88
79144;BME280;68551;47.484;19.092;2023-07-08T16:57:45;100680.75;;;28.21;28.40